sensor_id;sensor_type;location;lat;lon;timestamp;P1;durP1;ratioP1;P2;durP2;ratioP2
18172;SDS011;9211;48.818;9.312;2023-07-16T00:01:56;4.93;;;2.70;;
18172;SDS011;9211;48.818;9.312;2023-07-16T00:04:23;4.50;;;2.33;;
18172;SDS011;9211;48.818;9.312;2023-07-16T00:06:50;5.07;;;2.50;;
18172;SDS011;9211;48.818;9.312;2023-07-16T00:09:19;5.07;;;2.40;;
18172;SDS011;9211;48.818;9.312;2023-07-16T00:11:46;3.75;;;2.00;;
18172;SDS011;9211;48.818;9.312;2023-07-16T00:14:12;4.32;;;1.95;;
18172;SDS011;9211;48.818;9.312;2023-07-16T00:16:39;5.37;;;2.10;;
18172;SDS011;9211;48.818;9.312;2023-07-16T00:19:06;2.80;;;1.95;;
18172;SDS011;9211;48.818;9.312;2023-07-16T00:21:36;2.90;;;1.40;;
18172;SDS011;9211;48.818;9.312;2023-07-16T00:24:03;3.33;;;1.50;;
18172;SDS011;9211;48.818;9.312;2023-07-16T00:26:32;2.93;;;1.30;;
18172;SDS011;9211;48.818;9.312;2023-07-16T00:28:59;3.90;;;1.30;;
18172;SDS011;9211;48.818;9.312;2023-07-16T00:31:26;2.57;;;1.27;;
18172;SDS011;9211;48.818;9.312;2023-07-16T00:33:53;2.97;;;1.45;;
18172;SDS011;9211;48.818;9.312;2023-07-16T00:36:20;3.50;;;1.40;;
18172;SDS011;9211;48.818;9.312;2023-07-16T00:38:47;3.38;;;1.50;;
18172;SDS011;9211;48.818;9.312;2023-07-16T00:41:15;2.72;;;1.30;;
18172;SDS011;9211;48.818;9.312;2023-07-16T00:43:43;2.72;;;1.33;;
18172;SDS011;9211;48.818;9.312;2023-07-16T00:46:10;2.30;;;1.23;;
18172;SDS011;9211;48.818;9.312;2023-07-16T00:48:40;3.10;;;1.30;;
18172;SDS011;9211;48.818;9.312;2023-07-16T00:51:08;1.97;;;1.30;;
18172;SDS011;9211;48.818;9.312;2023-07-16T00:53:35;2.08;;;1.20;;
18172;SDS011;9211;48.818;9.312;2023-07-16T00:56:02;2.90;;;1.23;;
18172;SDS011;9211;48.818;9.312;2023-07-16T00:58:29;2.00;;;1.30;;
18172;SDS011;9211;48.818;9.312;2023-07-16T01:00:58;2.70;;;1.20;;
18172;SDS011;9211;48.818;9.312;2023-07-16T01:03:24;3.00;;;1.20;;
18172;SDS011;9211;48.818;9.312;2023-07-16T01:05:54;4.47;;;1.60;;
18172;SDS011;9211;48.818;9.312;2023-07-16T01:08:27;3.13;;;1.30;;
18172;SDS011;9211;48.818;9.312;2023-07-16T01:10:58;1.73;;;1.20;;
18172;SDS011;9211;48.818;9.312;2023-07-16T01:13:26;1.95;;;1.30;;
18172;SDS011;9211;48.818;9.312;2023-07-16T01:15:54;3.25;;;1.20;;
18172;SDS011;9211;48.818;9.312;2023-07-16T01:18:22;2.97;;;1.10;;
18172;SDS011;9211;48.818;9.312;2023-07-16T01:20:49;3.20;;;1.40;;
18172;SDS011;9211;48.818;9.312;2023-07-16T01:23:26;3.42;;;1.33;;
18172;SDS011;9211;48.818;9.312;2023-07-16T01:26:16;1.92;;;1.25;;
18172;SDS011;9211;48.818;9.312;2023-07-16T01:31:53;2.45;;;1.30;;
18172;SDS011;9211;48.818;9.312;2023-07-16T01:34:22;2.90;;;1.13;;
18172;SDS011;9211;48.818;9.312;2023-07-16T01:36:51;6.78;;;1.20;;
18172;SDS011;9211;48.818;9.312;2023-07-16T01:39:18;2.90;;;1.30;;
18172;SDS011;9211;48.818;9.312;2023-07-16T01:41:45;2.47;;;1.13;;
18172;SDS011;9211;48.818;9.312;2023-07-16T01:44:12;2.20;;;1.10;;
18172;SDS011;9211;48.818;9.312;2023-07-16T01:46:40;2.35;;;0.85;;
18172;SDS011;9211;48.818;9.312;2023-07-16T01:49:07;2.00;;;1.10;;
18172;SDS011;9211;48.818;9.312;2023-07-16T01:51:34;2.13;;;1.00;;
18172;SDS011;9211;48.818;9.312;2023-07-16T01:54:01;2.35;;;1.10;;
18172;SDS011;9211;48.818;9.312;2023-07-16T01:56:29;1.90;;;0.90;;
18172;SDS011;9211;48.818;9.312;2023-07-16T01:58:58;3.38;;;1.10;;
18172;SDS011;9211;48.818;9.312;2023-07-16T02:01:25;2.20;;;1.00;;
18172;SDS011;9211;48.818;9.312;2023-07-16T02:03:53;1.48;;;1.10;;
18172;SDS011;9211;48.818;9.312;2023-07-16T02:06:20;1.23;;;0.90;;
18172;SDS011;9211;48.818;9.312;2023-07-16T02:08:47;1.50;;;1.00;;
18172;SDS011;9211;48.818;9.312;2023-07-16T02:11:14;1.73;;;0.90;;
18172;SDS011;9211;48.818;9.312;2023-07-16T02:13:41;1.73;;;1.08;;
18172;SDS011;9211;48.818;9.312;2023-07-16T02:16:08;4.50;;;1.00;;
18172;SDS011;9211;48.818;9.312;2023-07-16T02:18:35;1.75;;;1.10;;
18172;SDS011;9211;48.818;9.312;2023-07-16T02:21:04;1.90;;;1.02;;
18172;SDS011;9211;48.818;9.312;2023-07-16T02:23:31;2.45;;;1.00;;
18172;SDS011;9211;48.818;9.312;2023-07-16T02:25:58;2.10;;;1.20;;
18172;SDS011;9211;48.818;9.312;2023-07-16T02:28:25;2.05;;;1.08;;
18172;SDS011;9211;48.818;9.312;2023-07-16T02:30:52;3.90;;;1.30;;
18172;SDS011;9211;48.818;9.312;2023-07-16T02:33:19;3.90;;;1.10;;
18172;SDS011;9211;48.818;9.312;2023-07-16T02:35:46;2.13;;;1.10;;
18172;SDS011;9211;48.818;9.312;2023-07-16T02:38:15;2.97;;;1.10;;
18172;SDS011;9211;48.818;9.312;2023-07-16T02:40:43;3.53;;;1.20;;
18172;SDS011;9211;48.818;9.312;2023-07-16T02:43:10;2.27;;;1.13;;
18172;SDS011;9211;48.818;9.312;2023-07-16T02:45:37;2.33;;;1.20;;
18172;SDS011;9211;48.818;9.312;2023-07-16T02:48:04;3.67;;;1.40;;
18172;SDS011;9211;48.818;9.312;2023-07-16T02:50:33;2.28;;;1.17;;
18172;SDS011;9211;48.818;9.312;2023-07-16T02:53:00;2.08;;;1.20;;
18172;SDS011;9211;48.818;9.312;2023-07-16T02:55:28;7.18;;;1.27;;
18172;SDS011;9211;48.818;9.312;2023-07-16T02:57:55;2.97;;;1.20;;
18172;SDS011;9211;48.818;9.312;2023-07-16T03:00:22;2.88;;;1.40;;
18172;SDS011;9211;48.818;9.312;2023-07-16T03:02:50;7.57;;;1.30;;
18172;SDS011;9211;48.818;9.312;2023-07-16T03:05:17;3.83;;;1.10;;
18172;SDS011;9211;48.818;9.312;2023-07-16T03:07:44;2.67;;;1.30;;
18172;SDS011;9211;48.818;9.312;2023-07-16T03:10:11;4.97;;;1.20;;
18172;SDS011;9211;48.818;9.312;2023-07-16T03:12:39;2.40;;;1.10;;
18172;SDS011;9211;48.818;9.312;2023-07-16T03:15:06;3.45;;;1.38;;
18172;SDS011;9211;48.818;9.312;2023-07-16T03:17:34;2.45;;;1.40;;
18172;SDS011;9211;48.818;9.312;2023-07-16T03:20:01;4.32;;;1.27;;
18172;SDS011;9211;48.818;9.312;2023-07-16T03:22:29;4.45;;;1.20;;
18172;SDS011;9211;48.818;9.312;2023-07-16T03:24:56;2.25;;;1.02;;
18172;SDS011;9211;48.818;9.312;2023-07-16T03:27:23;2.83;;;1.30;;
18172;SDS011;9211;48.818;9.312;2023-07-16T03:29:57;5.03;;;1.40;;
18172;SDS011;9211;48.818;9.312;2023-07-16T03:32:24;4.03;;;1.23;;
18172;SDS011;9211;48.818;9.312;2023-07-16T03:34:51;5.07;;;1.23;;
18172;SDS011;9211;48.818;9.312;2023-07-16T03:37:18;4.60;;;1.20;;
18172;SDS011;9211;48.818;9.312;2023-07-16T03:39:47;1.80;;;1.10;;
18172;SDS011;9211;48.818;9.312;2023-07-16T03:42:14;4.40;;;1.50;;
18172;SDS011;9211;48.818;9.312;2023-07-16T03:44:41;4.65;;;1.20;;
18172;SDS011;9211;48.818;9.312;2023-07-16T03:47:10;2.35;;;1.10;;
18172;SDS011;9211;48.818;9.312;2023-07-16T03:49:38;3.50;;;1.33;;
18172;SDS011;9211;48.818;9.312;2023-07-16T03:52:05;4.47;;;1.38;;
18172;SDS011;9211;48.818;9.312;2023-07-16T03:54:33;1.63;;;1.30;;
18172;SDS011;9211;48.818;9.312;2023-07-16T03:57:00;3.60;;;1.40;;
18172;SDS011;9211;48.818;9.312;2023-07-16T03:59:28;4.95;;;1.38;;
18172;SDS011;9211;48.818;9.312;2023-07-16T04:01:55;2.70;;;1.20;;
18172;SDS011;9211;48.818;9.312;2023-07-16T04:04:23;7.78;;;1.50;;
18172;SDS011;9211;48.818;9.312;2023-07-16T04:06:50;6.00;;;1.40;;
18172;SDS011;9211;48.818;9.312;2023-07-16T04:09:17;5.80;;;1.45;;
18172;SDS011;9211;48.818;9.312;2023-07-16T04:11:44;8.35;;;1.58;;
18172;SDS011;9211;48.818;9.312;2023-07-16T04:14:11;7.13;;;1.38;;
18172;SDS011;9211;48.818;9.312;2023-07-16T04:16:38;5.85;;;1.45;;
18172;SDS011;9211;48.818;9.312;2023-07-16T04:19:05;7.13;;;1.90;;
18172;SDS011;9211;48.818;9.312;2023-07-16T04:21:33;4.72;;;1.45;;
18172;SDS011;9211;48.818;9.312;2023-07-16T04:24:01;5.35;;;1.60;;
18172;SDS011;9211;48.818;9.312;2023-07-16T04:26:28;6.18;;;1.60;;
18172;SDS011;9211;48.818;9.312;2023-07-16T04:28:55;6.40;;;1.30;;
18172;SDS011;9211;48.818;9.312;2023-07-16T04:31:22;7.85;;;1.60;;
18172;SDS011;9211;48.818;9.312;2023-07-16T04:33:49;5.73;;;1.60;;
18172;SDS011;9211;48.818;9.312;2023-07-16T04:36:16;5.43;;;1.60;;
18172;SDS011;9211;48.818;9.312;2023-07-16T04:38:45;5.47;;;1.60;;
18172;SDS011;9211;48.818;9.312;2023-07-16T04:41:12;7.03;;;1.60;;
18172;SDS011;9211;48.818;9.312;2023-07-16T04:43:39;8.73;;;1.60;;
18172;SDS011;9211;48.818;9.312;2023-07-16T04:46:06;5.22;;;1.50;;
18172;SDS011;9211;48.818;9.312;2023-07-16T04:48:33;4.97;;;1.33;;
18172;SDS011;9211;48.818;9.312;2023-07-16T04:51:00;4.47;;;1.40;;
18172;SDS011;9211;48.818;9.312;2023-07-16T04:53:27;6.13;;;1.43;;
18172;SDS011;9211;48.818;9.312;2023-07-16T04:55:55;5.22;;;1.50;;
18172;SDS011;9211;48.818;9.312;2023-07-16T04:58:22;7.25;;;1.52;;
18172;SDS011;9211;48.818;9.312;2023-07-16T05:00:49;5.43;;;1.50;;
18172;SDS011;9211;48.818;9.312;2023-07-16T05:03:16;5.82;;;1.63;;
18172;SDS011;9211;48.818;9.312;2023-07-16T05:05:43;6.07;;;1.50;;
18172;SDS011;9211;48.818;9.312;2023-07-16T05:08:10;5.40;;;1.45;;
18172;SDS011;9211;48.818;9.312;2023-07-16T05:10:37;4.53;;;1.50;;
18172;SDS011;9211;48.818;9.312;2023-07-16T05:13:05;4.43;;;1.60;;
18172;SDS011;9211;48.818;9.312;2023-07-16T05:15:32;6.70;;;1.60;;
18172;SDS011;9211;48.818;9.312;2023-07-16T05:17:59;3.75;;;1.40;;
18172;SDS011;9211;48.818;9.312;2023-07-16T05:20:26;4.85;;;1.60;;
18172;SDS011;9211;48.818;9.312;2023-07-16T05:22:53;7.05;;;1.50;;
18172;SDS011;9211;48.818;9.312;2023-07-16T05:25:20;4.28;;;1.30;;
18172;SDS011;9211;48.818;9.312;2023-07-16T05:27:47;4.85;;;1.30;;
18172;SDS011;9211;48.818;9.312;2023-07-16T05:30:15;3.20;;;1.33;;
18172;SDS011;9211;48.818;9.312;2023-07-16T05:32:42;3.75;;;1.50;;
18172;SDS011;9211;48.818;9.312;2023-07-16T05:35:09;3.30;;;1.20;;
18172;SDS011;9211;48.818;9.312;2023-07-16T05:37:36;4.55;;;1.38;;
18172;SDS011;9211;48.818;9.312;2023-07-16T05:40:03;2.88;;;1.70;;
18172;SDS011;9211;48.818;9.312;2023-07-16T05:42:33;3.83;;;1.40;;
18172;SDS011;9211;48.818;9.312;2023-07-16T05:45:00;3.78;;;1.50;;
18172;SDS011;9211;48.818;9.312;2023-07-16T05:47:29;4.53;;;1.70;;
18172;SDS011;9211;48.818;9.312;2023-07-16T05:49:56;4.38;;;1.50;;
18172;SDS011;9211;48.818;9.312;2023-07-16T05:52:23;4.35;;;1.50;;
18172;SDS011;9211;48.818;9.312;2023-07-16T05:54:50;5.18;;;1.50;;
18172;SDS011;9211;48.818;9.312;2023-07-16T05:57:17;3.33;;;1.48;;
18172;SDS011;9211;48.818;9.312;2023-07-16T05:59:44;3.97;;;1.27;;
18172;SDS011;9211;48.818;9.312;2023-07-16T06:02:11;4.68;;;1.30;;
18172;SDS011;9211;48.818;9.312;2023-07-16T06:04:39;3.90;;;1.40;;
18172;SDS011;9211;48.818;9.312;2023-07-16T06:07:06;5.20;;;1.60;;
18172;SDS011;9211;48.818;9.312;2023-07-16T06:09:33;5.78;;;1.40;;
18172;SDS011;9211;48.818;9.312;2023-07-16T06:12:00;7.00;;;1.48;;
18172;SDS011;9211;48.818;9.312;2023-07-16T06:14:27;2.80;;;1.50;;
18172;SDS011;9211;48.818;9.312;2023-07-16T06:16:54;4.33;;;1.37;;
18172;SDS011;9211;48.818;9.312;2023-07-16T06:19:21;3.10;;;1.27;;
18172;SDS011;9211;48.818;9.312;2023-07-16T06:21:49;5.32;;;1.60;;
18172;SDS011;9211;48.818;9.312;2023-07-16T06:24:16;5.13;;;1.40;;
18172;SDS011;9211;48.818;9.312;2023-07-16T06:26:43;4.55;;;1.60;;
18172;SDS011;9211;48.818;9.312;2023-07-16T06:29:12;3.38;;;1.33;;
18172;SDS011;9211;48.818;9.312;2023-07-16T06:31:42;3.15;;;1.33;;
18172;SDS011;9211;48.818;9.312;2023-07-16T06:34:09;4.95;;;1.60;;
18172;SDS011;9211;48.818;9.312;2023-07-16T06:36:38;3.50;;;1.45;;
18172;SDS011;9211;48.818;9.312;2023-07-16T06:39:06;6.03;;;1.42;;
18172;SDS011;9211;48.818;9.312;2023-07-16T06:41:33;3.80;;;1.30;;
18172;SDS011;9211;48.818;9.312;2023-07-16T06:44:00;7.68;;;1.70;;
18172;SDS011;9211;48.818;9.312;2023-07-16T06:46:27;6.07;;;1.42;;
18172;SDS011;9211;48.818;9.312;2023-07-16T06:48:54;6.68;;;1.58;;
18172;SDS011;9211;48.818;9.312;2023-07-16T06:51:21;6.18;;;1.50;;
18172;SDS011;9211;48.818;9.312;2023-07-16T06:53:48;6.38;;;1.50;;
18172;SDS011;9211;48.818;9.312;2023-07-16T06:56:17;6.00;;;1.60;;
18172;SDS011;9211;48.818;9.312;2023-07-16T06:58:44;6.60;;;1.60;;
18172;SDS011;9211;48.818;9.312;2023-07-16T07:01:10;7.15;;;1.60;;
18172;SDS011;9211;48.818;9.312;2023-07-16T07:03:37;6.95;;;1.50;;
18172;SDS011;9211;48.818;9.312;2023-07-16T07:06:04;5.53;;;1.53;;
18172;SDS011;9211;48.818;9.312;2023-07-16T07:08:31;15.83;;;8.00;;
18172;SDS011;9211;48.818;9.312;2023-07-16T07:10:58;11.77;;;5.97;;
18172;SDS011;9211;48.818;9.312;2023-07-16T07:13:27;9.20;;;4.00;;
18172;SDS011;9211;48.818;9.312;2023-07-16T07:15:54;9.65;;;3.17;;
18172;SDS011;9211;48.818;9.312;2023-07-16T07:18:22;4.85;;;1.77;;
18172;SDS011;9211;48.818;9.312;2023-07-16T07:20:49;5.65;;;1.65;;
18172;SDS011;9211;48.818;9.312;2023-07-16T07:23:16;5.20;;;1.60;;
18172;SDS011;9211;48.818;9.312;2023-07-16T07:25:47;6.77;;;1.83;;
18172;SDS011;9211;48.818;9.312;2023-07-16T07:28:15;6.32;;;1.70;;
18172;SDS011;9211;48.818;9.312;2023-07-16T07:30:43;5.30;;;1.88;;
18172;SDS011;9211;48.818;9.312;2023-07-16T07:33:10;6.07;;;1.70;;
18172;SDS011;9211;48.818;9.312;2023-07-16T07:35:37;4.82;;;1.33;;
18172;SDS011;9211;48.818;9.312;2023-07-16T07:38:04;5.65;;;1.63;;
18172;SDS011;9211;48.818;9.312;2023-07-16T07:40:31;5.95;;;1.67;;
18172;SDS011;9211;48.818;9.312;2023-07-16T07:42:58;6.00;;;1.58;;
18172;SDS011;9211;48.818;9.312;2023-07-16T07:45:26;5.88;;;1.70;;
18172;SDS011;9211;48.818;9.312;2023-07-16T07:47:55;3.72;;;1.60;;
18172;SDS011;9211;48.818;9.312;2023-07-16T07:50:28;5.47;;;1.80;;
18172;SDS011;9211;48.818;9.312;2023-07-16T07:52:59;6.55;;;1.48;;
18172;SDS011;9211;48.818;9.312;2023-07-16T07:55:26;5.20;;;1.40;;
18172;SDS011;9211;48.818;9.312;2023-07-16T07:57:53;5.93;;;1.60;;
18172;SDS011;9211;48.818;9.312;2023-07-16T08:00:20;5.13;;;1.65;;
18172;SDS011;9211;48.818;9.312;2023-07-16T08:02:47;5.28;;;1.45;;
18172;SDS011;9211;48.818;9.312;2023-07-16T08:05:15;6.10;;;1.55;;
18172;SDS011;9211;48.818;9.312;2023-07-16T08:07:42;5.50;;;1.70;;
18172;SDS011;9211;48.818;9.312;2023-07-16T08:10:10;7.50;;;1.60;;
18172;SDS011;9211;48.818;9.312;2023-07-16T08:12:37;5.32;;;1.60;;
18172;SDS011;9211;48.818;9.312;2023-07-16T08:15:04;5.68;;;1.60;;
18172;SDS011;9211;48.818;9.312;2023-07-16T08:17:33;5.10;;;1.60;;
18172;SDS011;9211;48.818;9.312;2023-07-16T08:20:00;6.60;;;1.75;;
18172;SDS011;9211;48.818;9.312;2023-07-16T08:22:29;7.63;;;1.70;;
18172;SDS011;9211;48.818;9.312;2023-07-16T08:24:56;4.72;;;1.60;;
18172;SDS011;9211;48.818;9.312;2023-07-16T08:27:23;4.22;;;1.40;;
18172;SDS011;9211;48.818;9.312;2023-07-16T08:29:50;5.57;;;1.50;;
18172;SDS011;9211;48.818;9.312;2023-07-16T08:32:17;4.47;;;1.60;;
18172;SDS011;9211;48.818;9.312;2023-07-16T08:34:44;5.57;;;1.50;;
18172;SDS011;9211;48.818;9.312;2023-07-16T08:37:11;5.72;;;1.45;;
18172;SDS011;9211;48.818;9.312;2023-07-16T08:39:40;5.93;;;1.60;;
18172;SDS011;9211;48.818;9.312;2023-07-16T08:42:09;5.05;;;1.45;;
18172;SDS011;9211;48.818;9.312;2023-07-16T08:44:36;2.83;;;1.33;;
18172;SDS011;9211;48.818;9.312;2023-07-16T08:47:04;3.78;;;1.52;;
18172;SDS011;9211;48.818;9.312;2023-07-16T08:49:32;5.67;;;1.50;;
18172;SDS011;9211;48.818;9.312;2023-07-16T08:52:00;6.28;;;1.58;;
18172;SDS011;9211;48.818;9.312;2023-07-16T08:54:28;4.53;;;1.40;;
18172;SDS011;9211;48.818;9.312;2023-07-16T08:56:56;4.43;;;1.53;;
18172;SDS011;9211;48.818;9.312;2023-07-16T08:59:24;5.75;;;1.60;;
18172;SDS011;9211;48.818;9.312;2023-07-16T09:01:52;4.53;;;1.52;;
18172;SDS011;9211;48.818;9.312;2023-07-16T09:04:19;5.20;;;1.70;;
18172;SDS011;9211;48.818;9.312;2023-07-16T09:06:46;4.70;;;1.50;;
18172;SDS011;9211;48.818;9.312;2023-07-16T09:09:19;4.03;;;1.40;;
18172;SDS011;9211;48.818;9.312;2023-07-16T09:11:47;6.17;;;1.40;;
18172;SDS011;9211;48.818;9.312;2023-07-16T09:14:16;5.03;;;1.52;;
18172;SDS011;9211;48.818;9.312;2023-07-16T09:16:47;5.82;;;1.40;;
18172;SDS011;9211;48.818;9.312;2023-07-16T09:19:15;5.55;;;1.63;;
18172;SDS011;9211;48.818;9.312;2023-07-16T09:21:45;2.80;;;1.40;;
18172;SDS011;9211;48.818;9.312;2023-07-16T09:24:13;3.30;;;1.40;;
18172;SDS011;9211;48.818;9.312;2023-07-16T09:26:47;3.20;;;1.33;;
18172;SDS011;9211;48.818;9.312;2023-07-16T09:29:14;4.90;;;1.52;;
18172;SDS011;9211;48.818;9.312;2023-07-16T09:31:52;3.17;;;1.30;;
18172;SDS011;9211;48.818;9.312;2023-07-16T09:34:20;3.53;;;1.40;;
18172;SDS011;9211;48.818;9.312;2023-07-16T09:36:47;4.90;;;1.50;;
18172;SDS011;9211;48.818;9.312;2023-07-16T09:39:15;3.88;;;1.40;;
18172;SDS011;9211;48.818;9.312;2023-07-16T09:41:44;2.97;;;1.43;;
18172;SDS011;9211;48.818;9.312;2023-07-16T09:44:13;5.03;;;1.40;;
18172;SDS011;9211;48.818;9.312;2023-07-16T09:46:41;3.57;;;1.50;;
18172;SDS011;9211;48.818;9.312;2023-07-16T09:49:09;2.75;;;1.23;;
18172;SDS011;9211;48.818;9.312;2023-07-16T09:51:37;4.47;;;1.30;;
18172;SDS011;9211;48.818;9.312;2023-07-16T09:54:05;3.58;;;1.40;;
18172;SDS011;9211;48.818;9.312;2023-07-16T09:56:33;4.32;;;1.40;;
18172;SDS011;9211;48.818;9.312;2023-07-16T09:59:05;2.73;;;1.30;;
18172;SDS011;9211;48.818;9.312;2023-07-16T10:01:39;3.13;;;1.30;;
18172;SDS011;9211;48.818;9.312;2023-07-16T10:04:11;3.03;;;1.30;;
18172;SDS011;9211;48.818;9.312;2023-07-16T10:06:49;3.67;;;1.50;;
18172;SDS011;9211;48.818;9.312;2023-07-16T10:09:33;3.80;;;1.40;;
18172;SDS011;9211;48.818;9.312;2023-07-16T10:14:50;3.10;;;1.35;;
18172;SDS011;9211;48.818;9.312;2023-07-16T10:17:19;3.88;;;1.40;;
18172;SDS011;9211;48.818;9.312;2023-07-16T10:19:50;3.28;;;1.20;;
18172;SDS011;9211;48.818;9.312;2023-07-16T10:22:30;3.28;;;1.35;;
18172;SDS011;9211;48.818;9.312;2023-07-16T10:24:58;2.15;;;1.15;;
18172;SDS011;9211;48.818;9.312;2023-07-16T10:27:26;2.60;;;1.30;;
18172;SDS011;9211;48.818;9.312;2023-07-16T10:29:54;4.05;;;1.52;;
18172;SDS011;9211;48.818;9.312;2023-07-16T10:32:23;3.03;;;1.40;;
18172;SDS011;9211;48.818;9.312;2023-07-16T10:34:53;2.83;;;1.48;;
18172;SDS011;9211;48.818;9.312;2023-07-16T10:37:20;3.47;;;1.48;;
18172;SDS011;9211;48.818;9.312;2023-07-16T10:39:47;3.35;;;1.30;;
18172;SDS011;9211;48.818;9.312;2023-07-16T10:42:16;3.90;;;1.38;;
18172;SDS011;9211;48.818;9.312;2023-07-16T10:44:43;2.95;;;1.38;;
18172;SDS011;9211;48.818;9.312;2023-07-16T10:47:17;2.45;;;1.30;;
18172;SDS011;9211;48.818;9.312;2023-07-16T10:49:47;3.83;;;1.40;;
18172;SDS011;9211;48.818;9.312;2023-07-16T10:52:14;4.75;;;1.60;;
18172;SDS011;9211;48.818;9.312;2023-07-16T10:54:41;4.10;;;1.40;;
18172;SDS011;9211;48.818;9.312;2023-07-16T10:57:08;4.25;;;1.55;;
18172;SDS011;9211;48.818;9.312;2023-07-16T10:59:37;5.32;;;1.63;;
18172;SDS011;9211;48.818;9.312;2023-07-16T11:02:05;3.92;;;1.50;;
18172;SDS011;9211;48.818;9.312;2023-07-16T11:04:36;3.67;;;1.50;;
18172;SDS011;9211;48.818;9.312;2023-07-16T11:07:06;3.75;;;1.40;;
18172;SDS011;9211;48.818;9.312;2023-07-16T11:09:35;5.85;;;1.60;;
18172;SDS011;9211;48.818;9.312;2023-07-16T11:12:08;4.35;;;1.63;;
18172;SDS011;9211;48.818;9.312;2023-07-16T11:14:36;4.57;;;1.40;;
18172;SDS011;9211;48.818;9.312;2023-07-16T11:17:05;3.90;;;1.40;;
18172;SDS011;9211;48.818;9.312;2023-07-16T11:19:34;4.07;;;1.40;;
18172;SDS011;9211;48.818;9.312;2023-07-16T11:22:02;3.90;;;1.60;;
18172;SDS011;9211;48.818;9.312;2023-07-16T11:24:37;3.58;;;1.60;;
18172;SDS011;9211;48.818;9.312;2023-07-16T11:27:05;4.60;;;1.70;;
18172;SDS011;9211;48.818;9.312;2023-07-16T11:29:38;5.57;;;1.70;;
18172;SDS011;9211;48.818;9.312;2023-07-16T11:32:07;2.92;;;1.50;;
18172;SDS011;9211;48.818;9.312;2023-07-16T11:34:34;5.45;;;1.60;;
18172;SDS011;9211;48.818;9.312;2023-07-16T11:37:08;4.22;;;1.60;;
18172;SDS011;9211;48.818;9.312;2023-07-16T11:39:37;4.47;;;1.67;;
18172;SDS011;9211;48.818;9.312;2023-07-16T11:42:04;3.47;;;1.42;;
18172;SDS011;9211;48.818;9.312;2023-07-16T11:44:32;3.28;;;1.48;;
18172;SDS011;9211;48.818;9.312;2023-07-16T11:47:01;3.50;;;1.58;;
18172;SDS011;9211;48.818;9.312;2023-07-16T11:49:28;3.83;;;1.50;;
18172;SDS011;9211;48.818;9.312;2023-07-16T11:51:56;2.83;;;1.40;;
18172;SDS011;9211;48.818;9.312;2023-07-16T11:54:23;4.13;;;1.65;;
18172;SDS011;9211;48.818;9.312;2023-07-16T11:56:51;3.50;;;1.52;;
18172;SDS011;9211;48.818;9.312;2023-07-16T11:59:18;3.85;;;1.50;;
18172;SDS011;9211;48.818;9.312;2023-07-16T12:01:46;3.35;;;1.50;;
18172;SDS011;9211;48.818;9.312;2023-07-16T12:04:14;6.03;;;1.70;;
18172;SDS011;9211;48.818;9.312;2023-07-16T12:06:42;4.82;;;1.60;;
18172;SDS011;9211;48.818;9.312;2023-07-16T12:09:09;4.60;;;1.60;;
18172;SDS011;9211;48.818;9.312;2023-07-16T12:11:36;3.08;;;1.40;;
18172;SDS011;9211;48.818;9.312;2023-07-16T12:14:05;4.03;;;1.67;;
18172;SDS011;9211;48.818;9.312;2023-07-16T12:16:32;3.33;;;1.60;;
18172;SDS011;9211;48.818;9.312;2023-07-16T12:18:59;3.90;;;1.50;;
18172;SDS011;9211;48.818;9.312;2023-07-16T12:21:26;3.03;;;1.60;;
18172;SDS011;9211;48.818;9.312;2023-07-16T12:23:53;4.13;;;1.58;;
18172;SDS011;9211;48.818;9.312;2023-07-16T12:26:20;5.28;;;1.55;;
18172;SDS011;9211;48.818;9.312;2023-07-16T12:28:47;3.72;;;1.60;;
18172;SDS011;9211;48.818;9.312;2023-07-16T12:31:15;4.55;;;1.63;;
18172;SDS011;9211;48.818;9.312;2023-07-16T12:33:43;4.20;;;1.80;;
18172;SDS011;9211;48.818;9.312;2023-07-16T12:36:10;4.25;;;1.70;;
18172;SDS011;9211;48.818;9.312;2023-07-16T12:38:37;3.47;;;1.53;;
18172;SDS011;9211;48.818;9.312;2023-07-16T12:41:06;3.10;;;1.55;;
18172;SDS011;9211;48.818;9.312;2023-07-16T12:43:33;3.08;;;1.40;;
18172;SDS011;9211;48.818;9.312;2023-07-16T12:46:00;3.08;;;1.50;;
18172;SDS011;9211;48.818;9.312;2023-07-16T12:48:30;3.75;;;1.50;;
18172;SDS011;9211;48.818;9.312;2023-07-16T12:50:57;4.13;;;1.40;;
18172;SDS011;9211;48.818;9.312;2023-07-16T12:53:24;2.78;;;1.30;;
18172;SDS011;9211;48.818;9.312;2023-07-16T12:55:52;4.57;;;1.50;;
18172;SDS011;9211;48.818;9.312;2023-07-16T12:58:19;3.38;;;1.70;;
18172;SDS011;9211;48.818;9.312;2023-07-16T13:00:46;3.97;;;1.77;;
18172;SDS011;9211;48.818;9.312;2023-07-16T13:03:13;3.33;;;1.40;;
18172;SDS011;9211;48.818;9.312;2023-07-16T13:05:43;3.30;;;1.70;;
18172;SDS011;9211;48.818;9.312;2023-07-16T13:08:10;2.38;;;1.40;;
18172;SDS011;9211;48.818;9.312;2023-07-16T13:10:38;2.28;;;1.38;;
18172;SDS011;9211;48.818;9.312;2023-07-16T13:13:06;2.83;;;1.40;;
18172;SDS011;9211;48.818;9.312;2023-07-16T13:15:34;2.72;;;1.42;;
18172;SDS011;9211;48.818;9.312;2023-07-16T13:18:01;2.70;;;1.48;;
18172;SDS011;9211;48.818;9.312;2023-07-16T13:20:28;2.92;;;1.42;;
18172;SDS011;9211;48.818;9.312;2023-07-16T13:22:57;3.70;;;1.50;;
18172;SDS011;9211;48.818;9.312;2023-07-16T13:25:24;3.85;;;1.60;;
18172;SDS011;9211;48.818;9.312;2023-07-16T13:27:51;3.33;;;1.42;;
18172;SDS011;9211;48.818;9.312;2023-07-16T13:30:19;2.92;;;1.52;;
18172;SDS011;9211;48.818;9.312;2023-07-16T13:32:46;2.63;;;1.50;;
18172;SDS011;9211;48.818;9.312;2023-07-16T13:35:14;3.38;;;1.50;;
18172;SDS011;9211;48.818;9.312;2023-07-16T13:37:41;2.13;;;1.20;;
18172;SDS011;9211;48.818;9.312;2023-07-16T13:40:10;3.13;;;1.40;;
18172;SDS011;9211;48.818;9.312;2023-07-16T13:42:38;3.50;;;1.40;;
18172;SDS011;9211;48.818;9.312;2023-07-16T13:45:05;2.25;;;1.40;;
18172;SDS011;9211;48.818;9.312;2023-07-16T13:47:33;4.63;;;1.65;;
18172;SDS011;9211;48.818;9.312;2023-07-16T13:50:00;6.05;;;1.50;;
18172;SDS011;9211;48.818;9.312;2023-07-16T13:52:27;4.22;;;1.60;;
18172;SDS011;9211;48.818;9.312;2023-07-16T13:54:54;3.40;;;1.63;;
18172;SDS011;9211;48.818;9.312;2023-07-16T13:57:22;2.17;;;1.30;;
18172;SDS011;9211;48.818;9.312;2023-07-16T13:59:49;2.97;;;1.38;;
18172;SDS011;9211;48.818;9.312;2023-07-16T14:02:16;4.63;;;1.63;;
18172;SDS011;9211;48.818;9.312;2023-07-16T14:04:44;2.88;;;1.60;;
18172;SDS011;9211;48.818;9.312;2023-07-16T14:07:11;3.50;;;1.40;;
18172;SDS011;9211;48.818;9.312;2023-07-16T14:09:38;3.92;;;1.67;;
18172;SDS011;9211;48.818;9.312;2023-07-16T14:12:05;3.80;;;1.80;;
18172;SDS011;9211;48.818;9.312;2023-07-16T14:14:33;3.50;;;1.70;;
18172;SDS011;9211;48.818;9.312;2023-07-16T14:17:00;4.28;;;1.63;;
18172;SDS011;9211;48.818;9.312;2023-07-16T14:19:28;4.57;;;1.70;;
18172;SDS011;9211;48.818;9.312;2023-07-16T14:21:56;3.60;;;1.58;;
18172;SDS011;9211;48.818;9.312;2023-07-16T14:24:23;3.63;;;1.60;;
18172;SDS011;9211;48.818;9.312;2023-07-16T14:26:50;3.80;;;1.40;;
18172;SDS011;9211;48.818;9.312;2023-07-16T14:29:17;3.53;;;1.45;;
18172;SDS011;9211;48.818;9.312;2023-07-16T14:31:45;2.93;;;1.40;;
18172;SDS011;9211;48.818;9.312;2023-07-16T14:34:12;2.83;;;1.50;;
18172;SDS011;9211;48.818;9.312;2023-07-16T14:36:40;4.30;;;1.38;;
18172;SDS011;9211;48.818;9.312;2023-07-16T14:39:07;3.28;;;1.50;;
18172;SDS011;9211;48.818;9.312;2023-07-16T14:41:34;2.72;;;1.52;;
18172;SDS011;9211;48.818;9.312;2023-07-16T14:44:01;3.40;;;1.40;;
18172;SDS011;9211;48.818;9.312;2023-07-16T14:46:28;2.38;;;1.25;;
18172;SDS011;9211;48.818;9.312;2023-07-16T14:48:56;2.30;;;1.30;;
18172;SDS011;9211;48.818;9.312;2023-07-16T14:51:23;3.28;;;1.50;;
18172;SDS011;9211;48.818;9.312;2023-07-16T14:53:50;3.20;;;1.60;;
18172;SDS011;9211;48.818;9.312;2023-07-16T14:56:18;3.40;;;1.55;;
18172;SDS011;9211;48.818;9.312;2023-07-16T14:58:45;3.05;;;1.30;;
18172;SDS011;9211;48.818;9.312;2023-07-16T15:01:12;3.88;;;1.52;;
18172;SDS011;9211;48.818;9.312;2023-07-16T15:03:39;2.92;;;1.50;;
18172;SDS011;9211;48.818;9.312;2023-07-16T15:06:07;2.90;;;1.40;;
18172;SDS011;9211;48.818;9.312;2023-07-16T15:08:34;3.47;;;1.30;;
18172;SDS011;9211;48.818;9.312;2023-07-16T15:11:01;3.03;;;1.30;;